الصفحة الرئيسية
METAR-TAF:

METAR-TAF

مطار :

Bullhead City, أريزونا, الولايات المتحدة

دائرة عرض: 35-09-27N, خط طول: 114-33-34W, ارتفاع: 212 متر

مراقبة الطقس الحالي

تاريخ ووقت الإصدار 29 دقيقة قبل الساعة 07:55UTC
ريح 3 عقدة من الشرق/الشمال الشرقي
درجة الحرارة 15°درجة مئوية
الرطوبة 55%
ضغط 1013 hPa
الرؤية: 16.1 كم
سماء صافية

METAR: KIFP 210755Z AUTO 07003KT 10SM CLR 15/06 A2991 RMK AO2

زمن: 01:24 (08:24 UTC)

توقعات

تاريخ ووقت الإصدار 3ساعات و 4 دقيقة قبل الساعة 05:20UTC
التوقعات صالحة من21 الساعة 06 UTC إلى 22 الساعة 06 UTC
ريح 5 عقدةمن اتجاهات متغيرة
الرؤية: 10 كم
غيوم مفككة على ارتفاع 10000 قدم
من 21 الساعة 1900 UTC
ريح 12 عقدة من الجنوب تتزايد حتى 18 عقدة
الرؤية: 10 كم
غيوم مفككة على ارتفاع 10000 قدم
من 22 الساعة 0300 UTC
ريح 5 عقدة من الجنوب/الجنوب الشرقي
الرؤية: 10 كم
غيوم مفككة على ارتفاع 10000 قدم

TAF: KIFP 210520Z 2106/2206 VRB05KT P6SM BKN100 FM211900 18012G18KT P6SM BKN100 FM220300 16005KT P6SM BKN100

أرصاد الطقس والتوقعات من أكثر من 4000 مطار (تقارير الطقس للمطار METAR والتنبؤ بالطقس بالمطارTAF).

المحطات المتاحة هي النقط الصفراء والحمراء على الخريطة.

حرك المؤشر فوق النقطة لمعرفة اسم المحطة.

ثم انقر لمعرفة أرصاد وتوقعات الطقس.

لتغيير الخارطة: اضغط على الأزرار الخضراء مع رمز الصليب الأسود للتكبير. على الزر الأخضر مع شرطة للتصغير، أو على الأسهم الخضراء للخرائط المجاورة.


METAR-TAF: